Chicken, AK (99732)

9:27 AM AKDT on July 30, 2014 (GMT -0800)
Nabesna (PABN) Elev 2877 ft | 62.40 °N, 143.00 °W | Change Station

Current weather conditions updated 42 minutes ago

Mostly Cloudy
Mostly Cloudy
48 °F
Feels Like 48 °F
N
7
Wind Variable Wind from ESE

Today is forecast to be Warmer than yesterday.

Today
High -- | Low -- °F
--% Chance of Precip.
Yesterday
High -- | Low -- °F
Precip. -- in
4:33 AM 10:34 PM
Waxing Crescent, 12% visible
Pressure 30.19 in
Visibility 10.0 miles
Clouds Scattered Clouds 800 ft
Mostly Cloudy 4000 ft
Mostly Cloudy 8000 ft
Dew Point 45 °F
Humidity 87%
Rainfall 0.00 in
Snow Depth Not available.
UV 1 out of 12
Pollen Not available.
Air Quality Not available.
Flu Activity Not available.
METAR PABN 301645Z 12006KT 10SM VCFG SCT008 BKN040 BKN080 09/07 A3019 RMK VCFG ALQDS MIN 7.0 NOSPECI

More Conditions Fewer Conditions

Pressure 30.19 in
Visibility 10.0 miles
Clouds Scattered Clouds 800 ft
Mostly Cloudy 4000 ft
Mostly Cloudy 8000 ft
Dew Point 45 °F
Humidity 87%
Rainfall 0.00 in
Snow Depth Not available.
UV 1 out of 12
Pollen Not available.
Air Quality Not available.
Flu Activity Not available.
METAR PABN 301645Z 12006KT 10SM VCFG SCT008 BKN040 BKN080 09/07 A3019 RMK VCFG ALQDS MIN 7.0 NOSPECI

More Conditions Fewer Conditions

10-Day Weather Forecast

Almanac

Astronomy

Jul. 30, 2014 Rise Set
Actual Time 4:33 AM AKDT 10:34 PM AKDT
Civil Twilight 3:01 AM AKDT 12:02 AM AKDT
Nautical Twilight Sun does not rise Sun does not rise
Astronomical Twilight Sun does not rise Sun does not rise
Moon 9:56 AM AKDT 10:30 PM AKDT
Length of Visible Light 21h 01m
Length of Day
18h 01m
Tomorrow will be 6m 19s shorter.
Waxing Crescent, 12% of the Moon is Illuminated
Today
Waxing Crescent
Aug 3
First Quarter
Aug 10
Full
Aug 17
Last Quarter
Aug 25
New

Today's Extremes

State Highs State Lows

Community

WunderPhotos

Upload Photos

1,739,138 photos uploaded!

Nearby

Snow Depth

Station Depth Elevation
Granite Creek 0 in 1240 ft
Upper Chena 6 in 2850 ft
Munson Ridge 1 in 3100 ft
Monument Creek 0 in 1850 ft
Eagle Summit 1 in 3650 ft

Earthquake Activity

City Distance Mag. Time & Date
No recent earthquake activity has been reported nearby.
Minimum magnitude displayed is 2.5.

Coastal Water Temperatures

Place Temperature
No Stations Reporting

Nearby Weather Stations

Station Location Temp. Dew Point Humidity Wind Precip. Elev Updated Type
RAWS CHICKEN AK, Chicken, AK 53 °F 43 °F 69% East  at  2 mph 0.00 in / hr 2859 ft 8:20 AM AKDT MADIS

Show More Stations Show Fewer Stations